sensor_id;sensor_type;location;lat;lon;timestamp;pressure;altitude;pressure_sealevel;temperature;humidity
74552;BME280;63025;55.472;38.432;2023-07-13T00:01:52;99322.53;;;13.05;76.78
74552;BME280;63025;55.472;38.432;2023-07-13T00:04:20;99327.13;;;13.05;76.92
74552;BME280;63025;55.472;38.432;2023-07-13T00:06:46;99325.50;;;13.04;77.19
74552;BME280;63025;55.472;38.432;2023-07-13T00:09:17;99321.97;;;13.03;77.43
74552;BME280;63025;55.472;38.432;2023-07-13T00:11:44;99326.78;;;13.01;77.39
74552;BME280;63025;55.472;38.432;2023-07-13T00:14:13;99327.25;;;12.98;77.16
74552;BME280;63025;55.472;38.432;2023-07-13T00:16:39;99316.22;;;13.00;76.89
74552;BME280;63025;55.472;38.432;2023-07-13T00:19:10;99320.56;;;13.01;76.97
74552;BME280;63025;55.472;38.432;2023-07-13T00:21:38;99321.38;;;13.01;76.77
74552;BME280;63025;55.472;38.432;2023-07-13T00:24:05;99319.50;;;13.02;76.75
74552;BME280;63025;55.472;38.432;2023-07-13T00:26:31;99315.16;;;13.01;76.75
74552;BME280;63025;55.472;38.432;2023-07-13T00:28:58;99323.50;;;12.99;76.74
74552;BME280;63025;55.472;38.432;2023-07-13T00:31:24;99324.56;;;12.98;77.10
74552;BME280;63025;55.472;38.432;2023-07-13T00:33:51;99324.56;;;12.98;77.25
74552;BME280;63025;55.472;38.432;2023-07-13T00:36:17;99327.53;;;12.97;77.38
74552;BME280;63025;55.472;38.432;2023-07-13T00:38:43;99319.97;;;12.99;77.50
74552;BME280;63025;55.472;38.432;2023-07-13T00:41:09;99320.50;;;12.96;77.37
74552;BME280;63025;55.472;38.432;2023-07-13T00:43:35;99325.66;;;12.97;77.38
74552;BME280;63025;55.472;38.432;2023-07-13T00:48:31;99329.16;;;12.98;77.63
74552;BME280;63025;55.472;38.432;2023-07-13T00:51:00;99324.00;;;12.96;77.59
74552;BME280;63025;55.472;38.432;2023-07-13T00:53:28;99319.44;;;12.97;77.59
74552;BME280;63025;55.472;38.432;2023-07-13T00:55:56;99317.56;;;12.97;77.73
74552;BME280;63025;55.472;38.432;2023-07-13T00:58:24;99312.16;;;12.97;77.68
74552;BME280;63025;55.472;38.432;2023-07-13T01:00:50;99324.81;;;12.97;77.73
74552;BME280;63025;55.472;38.432;2023-07-13T01:03:18;99324.56;;;12.98;77.21
74552;BME280;63025;55.472;38.432;2023-07-13T01:05:47;99316.38;;;12.93;77.25
74552;BME280;63025;55.472;38.432;2023-07-13T01:08:14;99320.16;;;12.92;77.38
74552;BME280;63025;55.472;38.432;2023-07-13T01:10:39;99322.84;;;12.92;77.38
74552;BME280;63025;55.472;38.432;2023-07-13T01:13:07;99320.38;;;12.91;77.34
74552;BME280;63025;55.472;38.432;2023-07-13T01:15:40;99324.47;;;12.93;77.24
74552;BME280;63025;55.472;38.432;2023-07-13T01:18:09;99325.31;;;12.94;77.34
74552;BME280;63025;55.472;38.432;2023-07-13T01:20:35;99326.13;;;12.94;77.10
74552;BME280;63025;55.472;38.432;2023-07-13T01:23:07;99322.38;;;12.95;77.29
74552;BME280;63025;55.472;38.432;2023-07-13T01:25:34;99325.53;;;12.92;77.50
74552;BME280;63025;55.472;38.432;2023-07-13T01:28:02;99319.09;;;12.93;77.08
74552;BME280;63025;55.472;38.432;2023-07-13T01:30:28;99316.38;;;12.93;77.17
74552;BME280;63025;55.472;38.432;2023-07-13T01:32:55;99311.00;;;12.93;77.35
74552;BME280;63025;55.472;38.432;2023-07-13T01:35:21;99306.19;;;12.95;77.13
74552;BME280;63025;55.472;38.432;2023-07-13T01:37:47;99305.38;;;12.95;77.05
74552;BME280;63025;55.472;38.432;2023-07-13T01:40:14;99306.78;;;12.97;77.00
74552;BME280;63025;55.472;38.432;2023-07-13T01:42:40;99301.91;;;12.99;77.08
74552;BME280;63025;55.472;38.432;2023-07-13T01:45:06;99297.34;;;13.00;77.05
74552;BME280;63025;55.472;38.432;2023-07-13T01:47:32;99299.81;;;13.01;77.29
74552;BME280;63025;55.472;38.432;2023-07-13T01:49:58;99296.06;;;13.02;77.27
74552;BME280;63025;55.472;38.432;2023-07-13T01:52:25;99302.25;;;13.03;77.54
74552;BME280;63025;55.472;38.432;2023-07-13T01:54:51;99303.31;;;13.02;77.05
74552;BME280;63025;55.472;38.432;2023-07-13T01:57:17;99305.19;;;13.01;77.04
74552;BME280;63025;55.472;38.432;2023-07-13T01:59:42;99304.47;;;13.06;76.73
74552;BME280;63025;55.472;38.432;2023-07-13T02:02:08;99301.53;;;13.07;76.87
74552;BME280;63025;55.472;38.432;2023-07-13T02:04:36;99304.25;;;13.07;76.80
74552;BME280;63025;55.472;38.432;2023-07-13T02:07:02;99303.72;;;13.10;76.72
74552;BME280;63025;55.472;38.432;2023-07-13T02:09:28;99304.78;;;13.09;76.63
74552;BME280;63025;55.472;38.432;2023-07-13T02:11:54;99304.56;;;13.11;76.71
74552;BME280;63025;55.472;38.432;2023-07-13T02:14:20;99306.56;;;13.15;77.02
74552;BME280;63025;55.472;38.432;2023-07-13T02:16:46;99305.28;;;13.18;77.00
74552;BME280;63025;55.472;38.432;2023-07-13T02:19:14;99307.69;;;13.19;77.20
74552;BME280;63025;55.472;38.432;2023-07-13T02:21:40;99300.41;;;13.20;76.64
74552;BME280;63025;55.472;38.432;2023-07-13T02:24:06;99305.34;;;13.23;76.67
74552;BME280;63025;55.472;38.432;2023-07-13T02:26:31;99307.56;;;13.26;76.52
74552;BME280;63025;55.472;38.432;2023-07-13T02:28:57;99298.72;;;13.31;76.47
74552;BME280;63025;55.472;38.432;2023-07-13T02:31:23;99295.75;;;13.32;76.20
74552;BME280;63025;55.472;38.432;2023-07-13T02:33:49;99293.41;;;13.36;76.10
74552;BME280;63025;55.472;38.432;2023-07-13T02:36:15;99299.38;;;13.38;75.67
74552;BME280;63025;55.472;38.432;2023-07-13T02:38:44;99296.16;;;13.41;75.42
74552;BME280;63025;55.472;38.432;2023-07-13T02:41:09;99294.28;;;13.41;75.70
74552;BME280;63025;55.472;38.432;2023-07-13T02:43:37;99290.78;;;13.41;75.24
74552;BME280;63025;55.472;38.432;2023-07-13T02:46:03;99287.09;;;13.47;75.21
74552;BME280;63025;55.472;38.432;2023-07-13T02:48:37;99291.19;;;13.49;75.15
74552;BME280;63025;55.472;38.432;2023-07-13T02:51:03;99292.00;;;13.50;75.11
74552;BME280;63025;55.472;38.432;2023-07-13T02:53:29;99290.44;;;13.54;75.19
74552;BME280;63025;55.472;38.432;2023-07-13T02:55:56;99289.88;;;13.52;75.00
74552;BME280;63025;55.472;38.432;2023-07-13T02:58:22;99283.59;;;13.46;74.99
74552;BME280;63025;55.472;38.432;2023-07-13T03:00:48;99289.38;;;13.55;74.97
74552;BME280;63025;55.472;38.432;2023-07-13T03:03:17;99289.72;;;13.58;74.55
74552;BME280;63025;55.472;38.432;2023-07-13T03:05:44;99282.50;;;13.64;74.61
74552;BME280;63025;55.472;38.432;2023-07-13T03:08:11;99284.94;;;13.66;74.61
74552;BME280;63025;55.472;38.432;2023-07-13T03:10:38;99290.34;;;13.66;74.49
74552;BME280;63025;55.472;38.432;2023-07-13T03:13:09;99277.41;;;13.68;74.53
74552;BME280;63025;55.472;38.432;2023-07-13T03:15:35;99286.34;;;13.68;74.43
74552;BME280;63025;55.472;38.432;2023-07-13T03:18:02;99290.69;;;13.69;74.65
74552;BME280;63025;55.472;38.432;2023-07-13T03:20:27;99289.88;;;13.69;74.59
74552;BME280;63025;55.472;38.432;2023-07-13T03:22:53;99286.34;;;13.68;74.49
74552;BME280;63025;55.472;38.432;2023-07-13T03:25:20;99297.19;;;13.73;74.55
74552;BME280;63025;55.472;38.432;2023-07-13T03:27:47;99296.22;;;13.79;74.22
74552;BME280;63025;55.472;38.432;2023-07-13T03:30:13;99291.47;;;13.86;74.19
74552;BME280;63025;55.472;38.432;2023-07-13T03:32:39;99295.84;;;13.92;74.08
74552;BME280;63025;55.472;38.432;2023-07-13T03:35:05;99297.81;;;13.97;74.08
74552;BME280;63025;55.472;38.432;2023-07-13T03:37:31;99296.41;;;13.94;73.88
74552;BME280;63025;55.472;38.432;2023-07-13T03:39:57;99298.44;;;14.04;73.84
74552;BME280;63025;55.472;38.432;2023-07-13T03:42:25;99295.50;;;14.06;73.52
74552;BME280;63025;55.472;38.432;2023-07-13T03:44:51;99296.13;;;14.13;73.45
74552;BME280;63025;55.472;38.432;2023-07-13T03:47:19;99297.84;;;14.19;73.44
74552;BME280;63025;55.472;38.432;2023-07-13T03:49:45;99297.38;;;14.27;73.53
74552;BME280;63025;55.472;38.432;2023-07-13T03:52:13;99303.13;;;14.30;73.03
74552;BME280;63025;55.472;38.432;2023-07-13T03:54:38;99308.28;;;14.32;73.36
74552;BME280;63025;55.472;38.432;2023-07-13T03:57:05;99301.22;;;14.31;73.50
74552;BME280;63025;55.472;38.432;2023-07-13T03:59:34;99297.97;;;14.29;73.09
74552;BME280;63025;55.472;38.432;2023-07-13T04:02:01;99303.28;;;14.24;72.90
74552;BME280;63025;55.472;38.432;2023-07-13T04:04:27;99309.03;;;14.27;72.83
74552;BME280;63025;55.472;38.432;2023-07-13T04:06:53;99308.81;;;14.34;72.95
74552;BME280;63025;55.472;38.432;2023-07-13T04:09:19;99302.75;;;14.44;73.12
74552;BME280;63025;55.472;38.432;2023-07-13T04:11:45;99305.38;;;14.39;72.90
74552;BME280;63025;55.472;38.432;2023-07-13T04:14:11;99294.91;;;14.42;72.76
74552;BME280;63025;55.472;38.432;2023-07-13T04:16:36;99301.50;;;14.51;72.62
74552;BME280;63025;55.472;38.432;2023-07-13T04:19:02;99305.06;;;14.57;72.43
74552;BME280;63025;55.472;38.432;2023-07-13T04:21:30;99302.69;;;14.60;72.16
74552;BME280;63025;55.472;38.432;2023-07-13T04:23:56;99304.06;;;14.63;72.45
74552;BME280;63025;55.472;38.432;2023-07-13T04:26:23;99294.59;;;14.65;72.31
74552;BME280;63025;55.472;38.432;2023-07-13T04:28:50;99303.41;;;14.78;72.31
74552;BME280;63025;55.472;38.432;2023-07-13T04:31:17;99294.88;;;14.91;71.94
74552;BME280;63025;55.472;38.432;2023-07-13T04:33:43;99291.47;;;15.05;71.88
74552;BME280;63025;55.472;38.432;2023-07-13T04:36:09;99292.44;;;15.21;70.99
74552;BME280;63025;55.472;38.432;2023-07-13T04:38:36;99294.75;;;15.39;70.73
74552;BME280;63025;55.472;38.432;2023-07-13T04:41:04;99286.81;;;15.60;70.37
74552;BME280;63025;55.472;38.432;2023-07-13T04:43:32;99294.22;;;15.74;69.90
74552;BME280;63025;55.472;38.432;2023-07-13T04:46:06;99290.75;;;15.84;69.53
74552;BME280;63025;55.472;38.432;2023-07-13T04:48:33;99293.97;;;15.76;68.93
74552;BME280;63025;55.472;38.432;2023-07-13T04:50:59;99285.59;;;15.83;68.71
74552;BME280;63025;55.472;38.432;2023-07-13T04:53:26;99285.91;;;15.86;68.53
74552;BME280;63025;55.472;38.432;2023-07-13T04:55:52;99291.34;;;15.91;68.61
74552;BME280;63025;55.472;38.432;2023-07-13T04:58:18;99303.50;;;15.89;68.50
74552;BME280;63025;55.472;38.432;2023-07-13T05:00:44;99297.31;;;15.93;68.22
74552;BME280;63025;55.472;38.432;2023-07-13T05:03:10;99296.00;;;15.96;67.97
74552;BME280;63025;55.472;38.432;2023-07-13T05:05:36;99292.97;;;15.92;67.92
74552;BME280;63025;55.472;38.432;2023-07-13T05:08:01;99304.38;;;15.94;67.88
74552;BME280;63025;55.472;38.432;2023-07-13T05:10:27;99292.16;;;15.92;68.04
74552;BME280;63025;55.472;38.432;2023-07-13T05:12:53;99299.66;;;15.79;68.18
74552;BME280;63025;55.472;38.432;2023-07-13T05:15:21;99291.25;;;15.76;68.27
74552;BME280;63025;55.472;38.432;2023-07-13T05:17:48;99293.91;;;15.66;68.60
74552;BME280;63025;55.472;38.432;2023-07-13T05:20:14;99292.22;;;15.60;68.78
74552;BME280;63025;55.472;38.432;2023-07-13T05:22:41;99289.78;;;15.58;69.06
74552;BME280;63025;55.472;38.432;2023-07-13T05:25:07;99285.63;;;15.51;69.25
74552;BME280;63025;55.472;38.432;2023-07-13T05:27:34;99291.38;;;15.54;69.65
74552;BME280;63025;55.472;38.432;2023-07-13T05:30:01;99299.84;;;15.63;69.87
74552;BME280;63025;55.472;38.432;2023-07-13T05:32:29;99299.91;;;15.73;69.51
74552;BME280;63025;55.472;38.432;2023-07-13T05:34:55;99307.53;;;15.81;69.20
74552;BME280;63025;55.472;38.432;2023-07-13T05:37:21;99308.41;;;15.87;69.38
74552;BME280;63025;55.472;38.432;2023-07-13T05:39:47;99299.47;;;15.91;69.08
74552;BME280;63025;55.472;38.432;2023-07-13T05:42:13;99303.56;;;15.99;68.89
74552;BME280;63025;55.472;38.432;2023-07-13T05:44:39;99299.03;;;16.09;68.75
74552;BME280;63025;55.472;38.432;2023-07-13T05:47:05;99308.06;;;16.25;68.54
74552;BME280;63025;55.472;38.432;2023-07-13T05:49:31;99307.31;;;16.40;68.14
74552;BME280;63025;55.472;38.432;2023-07-13T05:51:57;99301.59;;;16.41;67.63
74552;BME280;63025;55.472;38.432;2023-07-13T05:54:22;99303.00;;;16.49;67.38
74552;BME280;63025;55.472;38.432;2023-07-13T05:56:48;99288.66;;;16.59;67.05
74552;BME280;63025;55.472;38.432;2023-07-13T05:59:14;99294.94;;;16.64;66.68
74552;BME280;63025;55.472;38.432;2023-07-13T06:01:41;99287.91;;;16.73;66.72
74552;BME280;63025;55.472;38.432;2023-07-13T06:04:07;99291.72;;;16.82;66.30
74552;BME280;63025;55.472;38.432;2023-07-13T06:06:33;99303.38;;;16.83;66.24
74552;BME280;63025;55.472;38.432;2023-07-13T06:08:58;99309.09;;;16.86;66.48
74552;BME280;63025;55.472;38.432;2023-07-13T06:11:25;99308.84;;;16.88;66.39
74552;BME280;63025;55.472;38.432;2023-07-13T06:13:53;99299.63;;;16.89;65.95
74552;BME280;63025;55.472;38.432;2023-07-13T06:16:19;99292.84;;;16.97;65.99
74552;BME280;63025;55.472;38.432;2023-07-13T06:18:45;99289.56;;;16.95;65.58
74552;BME280;63025;55.472;38.432;2023-07-13T06:21:17;99291.19;;;16.96;65.94
74552;BME280;63025;55.472;38.432;2023-07-13T06:23:44;99286.06;;;17.09;66.16
74552;BME280;63025;55.472;38.432;2023-07-13T06:26:10;99287.94;;;17.14;65.99
74552;BME280;63025;55.472;38.432;2023-07-13T06:28:37;99283.63;;;17.28;65.67
74552;BME280;63025;55.472;38.432;2023-07-13T06:31:06;99280.06;;;17.48;65.36
74552;BME280;63025;55.472;38.432;2023-07-13T06:33:32;99277.13;;;17.65;64.82
74552;BME280;63025;55.472;38.432;2023-07-13T06:35:58;99277.63;;;17.82;64.21
74552;BME280;63025;55.472;38.432;2023-07-13T06:38:24;99273.75;;;18.03;63.82
74552;BME280;63025;55.472;38.432;2023-07-13T06:40:51;99280.47;;;18.26;62.81
74552;BME280;63025;55.472;38.432;2023-07-13T06:43:17;99279.13;;;18.18;61.94
74552;BME280;63025;55.472;38.432;2023-07-13T06:45:45;99285.09;;;18.20;62.10
74552;BME280;63025;55.472;38.432;2023-07-13T06:48:13;99276.31;;;18.39;61.93
74552;BME280;63025;55.472;38.432;2023-07-13T06:50:41;99275.69;;;18.62;61.48
74552;BME280;63025;55.472;38.432;2023-07-13T06:53:07;99286.03;;;18.65;60.31
74552;BME280;63025;55.472;38.432;2023-07-13T06:55:33;99284.41;;;18.64;60.07
74552;BME280;63025;55.472;38.432;2023-07-13T06:57:59;99285.47;;;18.68;60.70
74552;BME280;63025;55.472;38.432;2023-07-13T07:00:25;99282.16;;;18.71;59.80
74552;BME280;63025;55.472;38.432;2023-07-13T07:02:51;99273.44;;;18.74;59.60
74552;BME280;63025;55.472;38.432;2023-07-13T07:05:16;99278.53;;;18.86;59.70
74552;BME280;63025;55.472;38.432;2023-07-13T07:07:42;99270.06;;;18.92;58.73
74552;BME280;63025;55.472;38.432;2023-07-13T07:10:08;99268.69;;;18.95;59.14
74552;BME280;63025;55.472;38.432;2023-07-13T07:12:34;99274.88;;;19.00;59.07
74552;BME280;63025;55.472;38.432;2023-07-13T07:15:00;99278.75;;;18.99;59.15
74552;BME280;63025;55.472;38.432;2023-07-13T07:17:26;99277.94;;;18.94;59.28
74552;BME280;63025;55.472;38.432;2023-07-13T07:19:52;99267.91;;;18.89;60.24
74552;BME280;63025;55.472;38.432;2023-07-13T07:22:20;99265.91;;;18.51;59.16
74552;BME280;63025;55.472;38.432;2023-07-13T07:24:46;99266.47;;;18.53;59.89
74552;BME280;63025;55.472;38.432;2023-07-13T07:27:12;99268.63;;;18.61;60.19
74552;BME280;63025;55.472;38.432;2023-07-13T07:29:38;99269.19;;;18.58;59.72
74552;BME280;63025;55.472;38.432;2023-07-13T07:32:04;99275.22;;;18.45;59.89
74552;BME280;63025;55.472;38.432;2023-07-13T07:34:30;99273.59;;;18.39;59.84
74552;BME280;63025;55.472;38.432;2023-07-13T07:36:59;99281.22;;;18.42;60.16
74552;BME280;63025;55.472;38.432;2023-07-13T07:39:27;99272.50;;;18.40;60.73
74552;BME280;63025;55.472;38.432;2023-07-13T07:41:53;99276.34;;;18.33;60.76
74552;BME280;63025;55.472;38.432;2023-07-13T07:44:19;99278.56;;;18.26;61.20
74552;BME280;63025;55.472;38.432;2023-07-13T07:46:44;99274.22;;;18.25;61.45
74552;BME280;63025;55.472;38.432;2023-07-13T07:49:10;99296.78;;;18.21;61.30
74552;BME280;63025;55.472;38.432;2023-07-13T07:51:37;99295.97;;;18.20;61.21
74552;BME280;63025;55.472;38.432;2023-07-13T07:54:03;99295.16;;;18.20;61.42
74552;BME280;63025;55.472;38.432;2023-07-13T07:56:29;99297.31;;;18.28;61.51
74552;BME280;63025;55.472;38.432;2023-07-13T07:58:55;99305.47;;;18.33;60.77
74552;BME280;63025;55.472;38.432;2023-07-13T08:01:21;99311.94;;;18.42;60.83
74552;BME280;63025;55.472;38.432;2023-07-13T08:03:47;99315.75;;;18.46;60.17
74552;BME280;63025;55.472;38.432;2023-07-13T08:06:13;99323.38;;;18.44;60.53
74552;BME280;63025;55.472;38.432;2023-07-13T08:08:39;99323.38;;;18.39;60.86
74552;BME280;63025;55.472;38.432;2023-07-13T08:11:06;99323.19;;;18.25;61.04
74552;BME280;63025;55.472;38.432;2023-07-13T08:13:34;99323.25;;;18.05;61.50
74552;BME280;63025;55.472;38.432;2023-07-13T08:16:00;99314.53;;;17.98;62.38
74552;BME280;63025;55.472;38.432;2023-07-13T08:18:27;99306.44;;;17.83;63.69
74552;BME280;63025;55.472;38.432;2023-07-13T08:20:56;99311.63;;;17.64;64.39
74552;BME280;63025;55.472;38.432;2023-07-13T08:23:22;99304.53;;;17.58;64.97
74552;BME280;63025;55.472;38.432;2023-07-13T08:25:53;99305.91;;;17.50;66.71
74552;BME280;63025;55.472;38.432;2023-07-13T08:28:22;99300.44;;;17.45;67.56
74552;BME280;63025;55.472;38.432;2023-07-13T08:30:48;99295.59;;;17.42;67.67
74552;BME280;63025;55.472;38.432;2023-07-13T08:33:23;99296.66;;;17.36;68.24
74552;BME280;63025;55.472;38.432;2023-07-13T08:35:52;99310.78;;;17.38;68.65
74552;BME280;63025;55.472;38.432;2023-07-13T08:38:18;99304.00;;;17.51;69.48
74552;BME280;63025;55.472;38.432;2023-07-13T08:40:45;99298.28;;;17.57;69.53
74552;BME280;63025;55.472;38.432;2023-07-13T08:43:22;99303.97;;;17.76;69.61
74552;BME280;63025;55.472;38.432;2023-07-13T08:48:57;99300.44;;;17.96;69.81
74552;BME280;63025;55.472;38.432;2023-07-13T08:51:35;99301.50;;;17.90;70.18
74552;BME280;63025;55.472;38.432;2023-07-13T08:54:05;99302.09;;;17.72;70.16
74552;BME280;63025;55.472;38.432;2023-07-13T08:56:35;99307.50;;;17.56;70.98
74552;BME280;63025;55.472;38.432;2023-07-13T08:59:16;99306.97;;;17.34;71.85
74552;BME280;63025;55.472;38.432;2023-07-13T09:04:36;99308.59;;;17.25;72.53
74552;BME280;63025;55.472;38.432;2023-07-13T09:12:27;99314.56;;;17.07;72.24
74552;BME280;63025;55.472;38.432;2023-07-13T09:14:58;99309.66;;;17.04;72.30
74552;BME280;63025;55.472;38.432;2023-07-13T09:17:29;99302.59;;;16.98;71.97
74552;BME280;63025;55.472;38.432;2023-07-13T09:20:05;99296.09;;;16.99;72.14
74552;BME280;63025;55.472;38.432;2023-07-13T09:22:37;99300.19;;;17.01;71.82
74552;BME280;63025;55.472;38.432;2023-07-13T09:25:27;99312.38;;;17.04;70.96
74552;BME280;63025;55.472;38.432;2023-07-13T09:28:33;99314.84;;;17.00;69.77
74552;BME280;63025;55.472;38.432;2023-07-13T09:33:20;99306.97;;;17.09;69.68
74552;BME280;63025;55.472;38.432;2023-07-13T09:35:45;99308.59;;;17.15;69.12
74552;BME280;63025;55.472;38.432;2023-07-13T09:38:17;99322.19;;;17.25;69.01
74552;BME280;63025;55.472;38.432;2023-07-13T09:41:11;99305.88;;;17.25;68.44
74552;BME280;63025;55.472;38.432;2023-07-13T09:44:10;99310.78;;;17.28;68.07
74552;BME280;63025;55.472;38.432;2023-07-13T09:46:37;99307.78;;;17.30;68.47
74552;BME280;63025;55.472;38.432;2023-07-13T09:49:03;99310.78;;;17.38;68.19
74552;BME280;63025;55.472;38.432;2023-07-13T09:51:28;99297.72;;;17.45;68.14
74552;BME280;63025;55.472;38.432;2023-07-13T09:53:54;99303.19;;;17.66;67.92
74552;BME280;63025;55.472;38.432;2023-07-13T09:56:27;99300.44;;;17.96;67.62
74552;BME280;63025;55.472;38.432;2023-07-13T09:58:53;99291.06;;;18.27;67.34
74552;BME280;63025;55.472;38.432;2023-07-13T10:01:37;99295.91;;;18.46;67.18
74552;BME280;63025;55.472;38.432;2023-07-13T10:04:10;99292.63;;;18.39;66.39
74552;BME280;63025;55.472;38.432;2023-07-13T10:06:39;99297.84;;;18.35;66.66
74552;BME280;63025;55.472;38.432;2023-07-13T10:09:07;99303.00;;;18.37;66.76
74552;BME280;63025;55.472;38.432;2023-07-13T10:11:34;99298.66;;;18.30;66.81
74552;BME280;63025;55.472;38.432;2023-07-13T10:14:03;99296.50;;;18.32;66.73
74552;BME280;63025;55.472;38.432;2023-07-13T10:16:35;99303.56;;;18.28;66.27
74552;BME280;63025;55.472;38.432;2023-07-13T10:19:02;99308.50;;;18.21;65.97
74552;BME280;63025;55.472;38.432;2023-07-13T10:21:35;99304.44;;;18.09;65.38
74552;BME280;63025;55.472;38.432;2023-07-13T10:24:23;99299.34;;;17.92;65.70
74552;BME280;63025;55.472;38.432;2023-07-13T10:26:57;99299.91;;;17.84;65.98
74552;BME280;63025;55.472;38.432;2023-07-13T10:29:26;99299.63;;;17.85;66.32
74552;BME280;63025;55.472;38.432;2023-07-13T10:31:53;99301.00;;;17.83;65.99
74552;BME280;63025;55.472;38.432;2023-07-13T10:34:19;99303.16;;;17.81;65.52
74552;BME280;63025;55.472;38.432;2023-07-13T10:36:47;99301.81;;;17.83;65.92
74552;BME280;63025;55.472;38.432;2023-07-13T10:39:19;99310.78;;;17.79;65.95
74552;BME280;63025;55.472;38.432;2023-07-13T10:41:50;99303.72;;;17.68;64.78
74552;BME280;63025;55.472;38.432;2023-07-13T10:44:26;99308.91;;;17.64;64.86
74552;BME280;63025;55.472;38.432;2023-07-13T10:47:15;99315.16;;;17.75;65.25
74552;BME280;63025;55.472;38.432;2023-07-13T10:49:44;99314.03;;;17.76;65.04
74552;BME280;63025;55.472;38.432;2023-07-13T10:52:50;99324.34;;;17.89;65.26
74552;BME280;63025;55.472;38.432;2023-07-13T10:58:22;99328.44;;;17.41;63.88
74552;BME280;63025;55.472;38.432;2023-07-13T11:00:49;99341.75;;;17.32;64.99
74552;BME280;63025;55.472;38.432;2023-07-13T11:03:19;99330.34;;;17.20;65.67
74552;BME280;63025;55.472;38.432;2023-07-13T11:05:51;99334.66;;;17.06;65.73
74552;BME280;63025;55.472;38.432;2023-07-13T11:08:36;99343.88;;;17.00;66.87
74552;BME280;63025;55.472;38.432;2023-07-13T11:11:03;99336.78;;;16.94;67.50
74552;BME280;63025;55.472;38.432;2023-07-13T11:16:33;99346.22;;;16.66;68.61
74552;BME280;63025;55.472;38.432;2023-07-13T11:21:28;99357.25;;;16.54;69.64
74552;BME280;63025;55.472;38.432;2023-07-13T11:24:17;99355.06;;;16.51;70.87
74552;BME280;63025;55.472;38.432;2023-07-13T11:26:50;99355.84;;;16.41;71.69
74552;BME280;63025;55.472;38.432;2023-07-13T11:31:59;99351.44;;;16.25;72.10
74552;BME280;63025;55.472;38.432;2023-07-13T11:34:36;99348.38;;;16.11;72.56
74552;BME280;63025;55.472;38.432;2023-07-13T11:37:03;99352.16;;;16.05;72.56
74552;BME280;63025;55.472;38.432;2023-07-13T11:39:35;99353.19;;;15.99;72.72
74552;BME280;63025;55.472;38.432;2023-07-13T11:42:05;99355.28;;;15.87;72.90
74552;BME280;63025;55.472;38.432;2023-07-13T11:44:33;99353.03;;;15.79;73.31
74552;BME280;63025;55.472;38.432;2023-07-13T11:47:09;99351.94;;;15.75;74.09
74552;BME280;63025;55.472;38.432;2023-07-13T11:49:44;99354.59;;;15.70;73.99
74552;BME280;63025;55.472;38.432;2023-07-13T11:52:12;99350.75;;;15.61;74.41
74552;BME280;63025;55.472;38.432;2023-07-13T11:54:49;99348.53;;;15.58;74.97
74552;BME280;63025;55.472;38.432;2023-07-13T11:57:47;99347.38;;;15.49;75.29
74552;BME280;63025;55.472;38.432;2023-07-13T12:00:18;99354.06;;;15.36;75.71
74552;BME280;63025;55.472;38.432;2023-07-13T12:02:49;99362.94;;;15.31;76.46
74552;BME280;63025;55.472;38.432;2023-07-13T12:05:17;99378.03;;;15.27;77.08
74552;BME280;63025;55.472;38.432;2023-07-13T12:07:44;99366.69;;;15.25;77.48
74552;BME280;63025;55.472;38.432;2023-07-13T12:12:56;99371.22;;;15.20;78.15
74552;BME280;63025;55.472;38.432;2023-07-13T12:15:39;99373.66;;;15.21;78.52
74552;BME280;63025;55.472;38.432;2023-07-13T12:18:19;99369.88;;;15.22;78.41
74552;BME280;63025;55.472;38.432;2023-07-13T12:20:47;99362.25;;;15.19;78.66
74552;BME280;63025;55.472;38.432;2023-07-13T12:23:29;99363.41;;;15.23;78.85
74552;BME280;63025;55.472;38.432;2023-07-13T12:25:57;99359.63;;;15.24;78.95
74552;BME280;63025;55.472;38.432;2023-07-13T12:28:38;99356.66;;;15.26;78.87
74552;BME280;63025;55.472;38.432;2023-07-13T12:31:40;99358.00;;;15.28;79.09
74552;BME280;63025;55.472;38.432;2023-07-13T12:34:13;99351.25;;;15.26;78.96
74552;BME280;63025;55.472;38.432;2023-07-13T12:39:22;99346.09;;;15.24;79.49
74552;BME280;63025;55.472;38.432;2023-07-13T12:41:50;99350.38;;;15.20;80.04
74552;BME280;63025;55.472;38.432;2023-07-13T12:44:27;99350.63;;;15.19;80.49
74552;BME280;63025;55.472;38.432;2023-07-13T12:47:02;99342.50;;;15.19;80.56
74552;BME280;63025;55.472;38.432;2023-07-13T12:49:32;99346.84;;;15.20;80.82
74552;BME280;63025;55.472;38.432;2023-07-13T12:52:02;99346.34;;;15.23;81.01
74552;BME280;63025;55.472;38.432;2023-07-13T12:54:29;99340.09;;;15.22;81.39
74552;BME280;63025;55.472;38.432;2023-07-13T12:56:58;99338.00;;;15.29;81.26
74552;BME280;63025;55.472;38.432;2023-07-13T12:59:28;99341.00;;;15.33;81.38
74552;BME280;63025;55.472;38.432;2023-07-13T13:01:55;99345.34;;;15.34;81.61
74552;BME280;63025;55.472;38.432;2023-07-13T13:04:21;99340.22;;;15.37;81.37
74552;BME280;63025;55.472;38.432;2023-07-13T13:06:48;99343.50;;;15.39;81.13
74552;BME280;63025;55.472;38.432;2023-07-13T13:09:15;99341.91;;;15.43;81.18
74552;BME280;63025;55.472;38.432;2023-07-13T13:11:41;99337.84;;;15.41;80.40
74552;BME280;63025;55.472;38.432;2023-07-13T13:14:08;99337.84;;;15.41;80.02
74552;BME280;63025;55.472;38.432;2023-07-13T13:16:39;99337.56;;;15.42;79.06
74552;BME280;63025;55.472;38.432;2023-07-13T13:19:21;99330.75;;;15.35;78.56
74552;BME280;63025;55.472;38.432;2023-07-13T13:21:48;99332.06;;;15.32;79.02
74552;BME280;63025;55.472;38.432;2023-07-13T13:24:18;99332.00;;;15.27;78.87
74552;BME280;63025;55.472;38.432;2023-07-13T13:26:46;99333.09;;;15.26;78.62
74552;BME280;63025;55.472;38.432;2023-07-13T13:29:15;99324.94;;;15.21;77.87
74552;BME280;63025;55.472;38.432;2023-07-13T13:31:42;99320.03;;;15.18;78.24